createdAt,value
2022-10-06T00:00:11.464Z,1.80
2022-10-06T00:02:39.642Z,3.23
2022-10-06T00:05:08.011Z,1.80
2022-10-06T00:07:37.762Z,3.50
2022-10-06T00:10:07.284Z,3.27
2022-10-06T00:12:51.752Z,3.87
2022-10-06T00:15:24.189Z,3.43
2022-10-06T00:17:55.171Z,2.23
2022-10-06T00:20:23.945Z,3.73
2022-10-06T00:26:00.132Z,4.20
2022-10-06T00:28:28.745Z,5.57
2022-10-06T00:30:57.282Z,3.70
2022-10-06T00:33:51.118Z,2.90
2022-10-06T00:36:19.429Z,3.10
2022-10-06T00:38:49.449Z,5.00
2022-10-06T00:41:18.963Z,3.13
2022-10-06T00:43:52.730Z,5.80
2022-10-06T00:46:33.712Z,4.63
2022-10-06T00:49:07.408Z,6.60
2022-10-06T00:51:42.444Z,5.60
2022-10-06T00:54:12.509Z,7.33
2022-10-06T00:56:41.479Z,5.40
2022-10-06T00:59:12.217Z,6.10
2022-10-06T01:01:44.235Z,4.87
2022-10-06T01:04:17.790Z,6.73
2022-10-06T01:11:35.098Z,3.40
2022-10-06T01:14:03.638Z,2.53
2022-10-06T01:16:38.633Z,4.33
2022-10-06T01:19:17.483Z,2.03
2022-10-06T01:21:49.475Z,4.17
2022-10-06T01:24:20.156Z,5.47
2022-10-06T01:26:52.664Z,10.20
2022-10-06T01:29:21.843Z,5.93
2022-10-06T01:31:50.600Z,5.20
2022-10-06T01:34:18.854Z,5.57
2022-10-06T01:36:47.080Z,6.30
2022-10-06T01:39:15.470Z,5.07
2022-10-06T01:41:47.657Z,6.23
2022-10-06T01:44:16.835Z,6.53
2022-10-06T01:46:45.127Z,5.47
2022-10-06T01:49:13.268Z,6.70
2022-10-06T01:51:42.228Z,5.33
2022-10-06T01:54:10.324Z,6.90
2022-10-06T01:56:38.557Z,3.57
2022-10-06T01:59:08.551Z,9.20
2022-10-06T02:01:54.864Z,6.43
2022-10-06T02:04:23.176Z,6.57
2022-10-06T02:06:51.803Z,8.13
2022-10-06T02:09:19.876Z,5.40
2022-10-06T02:11:47.894Z,8.93
2022-10-06T02:14:18.146Z,8.70
2022-10-06T02:16:55.295Z,7.23
2022-10-06T02:19:23.364Z,5.73
2022-10-06T02:21:51.637Z,7.10
2022-10-06T02:24:23.293Z,7.50
2022-10-06T02:33:09.742Z,5.60
2022-10-06T02:35:38.495Z,4.60
2022-10-06T02:38:57.470Z,4.83
2022-10-06T02:41:26.174Z,8.60
2022-10-06T02:43:55.458Z,7.40
2022-10-06T02:46:26.410Z,7.73
2022-10-06T02:48:59.116Z,7.90
2022-10-06T02:51:27.577Z,4.47
2022-10-06T02:53:56.128Z,4.93
2022-10-06T02:56:25.517Z,5.20
2022-10-06T02:58:54.592Z,4.17
2022-10-06T03:01:31.271Z,7.03
2022-10-06T03:04:03.578Z,10.00
2022-10-06T03:06:45.162Z,3.63
2022-10-06T03:09:27.127Z,3.83
2022-10-06T03:12:05.490Z,6.60
2022-10-06T05:37:15.407Z,9.07
2022-10-06T05:39:44.323Z,11.50
2022-10-06T05:42:19.217Z,9.17
2022-10-06T05:44:50.523Z,9.67
2022-10-06T05:47:18.639Z,9.10
2022-10-06T05:49:46.559Z,12.63
2022-10-06T05:52:16.123Z,8.00
2022-10-06T05:54:44.517Z,13.37
2022-10-06T05:57:18.137Z,10.57
2022-10-06T05:59:46.331Z,9.40
2022-10-06T06:02:14.863Z,8.63
2022-10-06T06:04:46.656Z,13.17
2022-10-06T06:07:16.582Z,14.57
2022-10-06T06:09:46.322Z,13.00
2022-10-06T06:12:16.630Z,11.63
2022-10-06T06:15:06.650Z,11.87
2022-10-06T06:17:40.214Z,15.50
2022-10-06T06:20:09.150Z,13.10
2022-10-06T06:22:38.669Z,13.83
2022-10-06T06:25:08.865Z,7.40
2022-10-06T06:27:37.252Z,6.07
2022-10-06T06:30:06.813Z,16.73
2022-10-06T06:32:35.802Z,10.63
2022-10-06T06:35:04.894Z,14.13
2022-10-06T06:37:34.022Z,17.57
2022-10-06T06:40:05.239Z,8.73
2022-10-06T06:42:37.569Z,10.37
2022-10-06T06:45:35.241Z,13.30
2022-10-06T06:48:27.165Z,13.10
2022-10-06T06:50:59.369Z,10.47
2022-10-06T06:53:30.420Z,13.07
2022-10-06T06:56:02.310Z,11.37
2022-10-06T06:58:33.316Z,13.40
2022-10-06T07:01:14.452Z,12.30
2022-10-06T07:03:57.230Z,16.87
2022-10-06T07:06:34.081Z,10.53
2022-10-06T07:09:07.963Z,11.73
2022-10-06T07:11:41.844Z,13.37
2022-10-06T07:14:36.617Z,12.53
2022-10-06T07:17:22.976Z,16.20
2022-10-06T07:23:16.823Z,13.77
2022-10-06T07:25:45.008Z,14.87
2022-10-06T07:28:17.121Z,14.50
2022-10-06T07:30:45.638Z,13.00
2022-10-06T07:33:15.809Z,12.67
2022-10-06T07:35:46.000Z,14.77
2022-10-06T07:38:16.278Z,12.37
2022-10-06T07:41:18.291Z,12.70
2022-10-06T07:43:58.080Z,11.60
2022-10-06T07:46:28.983Z,13.77
2022-10-06T07:49:17.495Z,13.57
2022-10-06T07:51:46.071Z,16.30
2022-10-06T07:54:16.327Z,12.30
2022-10-06T07:56:55.210Z,17.83
2022-10-06T07:59:24.747Z,16.70
2022-10-06T08:01:54.852Z,11.03
2022-10-06T08:04:23.051Z,17.00
2022-10-06T08:06:51.012Z,17.03
2022-10-06T08:09:19.927Z,17.43
2022-10-06T08:11:48.881Z,11.97
2022-10-06T08:14:16.870Z,8.70
2022-10-06T08:16:46.326Z,17.47
2022-10-06T08:19:19.645Z,9.37
2022-10-06T08:21:47.835Z,15.30
2022-10-06T08:24:20.140Z,13.50
2022-10-06T08:27:16.277Z,9.77
2022-10-06T08:29:44.425Z,15.50
2022-10-06T08:32:13.859Z,14.27
2022-10-06T08:34:41.794Z,13.67
2022-10-06T08:37:19.836Z,12.03
2022-10-06T08:39:48.552Z,11.87
2022-10-06T08:42:26.087Z,13.90
2022-10-06T08:44:59.527Z,13.93
2022-10-06T08:47:34.686Z,11.87
2022-10-06T08:50:06.142Z,11.80
2022-10-06T08:52:53.218Z,13.30
2022-10-06T08:55:50.235Z,14.80
2022-10-06T08:58:30.800Z,10.87
2022-10-06T09:01:03.704Z,13.33
2022-10-06T09:03:33.286Z,14.80
2022-10-06T09:06:09.602Z,12.00
2022-10-06T09:08:51.039Z,11.30
2022-10-06T09:11:40.701Z,10.63
2022-10-06T09:14:17.911Z,10.53
2022-10-06T09:16:56.268Z,12.97
2022-10-06T09:19:33.950Z,10.63
2022-10-06T09:22:04.786Z,9.17
2022-10-06T09:24:40.501Z,13.10
2022-10-06T09:27:20.094Z,14.20
2022-10-06T09:29:50.006Z,10.83
2022-10-06T09:32:18.728Z,13.10
2022-10-06T09:34:52.103Z,11.37
2022-10-06T09:37:20.575Z,7.53
2022-10-06T09:39:50.959Z,12.93
2022-10-06T09:42:28.362Z,11.97
2022-10-06T09:45:03.953Z,9.20
2022-10-06T09:47:46.951Z,11.47
2022-10-06T09:50:22.879Z,9.47
2022-10-06T09:53:16.787Z,10.40
2022-10-06T09:55:54.586Z,17.03
2022-10-06T09:58:26.705Z,9.47
2022-10-06T10:01:06.845Z,10.17
2022-10-06T10:04:08.557Z,7.53
2022-10-06T10:06:40.241Z,12.47
2022-10-06T10:09:22.223Z,12.53
2022-10-06T10:12:19.783Z,12.23
2022-10-06T10:14:48.226Z,9.17
2022-10-06T10:17:20.589Z,12.10
2022-10-06T10:19:54.507Z,12.07
2022-10-06T10:22:27.221Z,11.97
2022-10-06T10:25:05.881Z,11.63
2022-10-06T10:27:44.571Z,9.53
2022-10-06T10:30:15.965Z,7.87
2022-10-06T10:32:58.007Z,11.73
2022-10-06T10:35:36.667Z,9.13
2022-10-06T10:38:20.697Z,14.07
2022-10-06T10:40:51.485Z,10.20
2022-10-06T10:43:29.947Z,6.70
2022-10-06T10:46:38.786Z,12.60
2022-10-06T10:49:32.887Z,9.97
2022-10-06T10:52:10.147Z,8.20
2022-10-06T10:54:46.221Z,12.93
2022-10-06T10:57:19.100Z,8.40
2022-10-06T10:59:59.852Z,9.97
2022-10-06T11:02:35.421Z,7.67
2022-10-06T11:05:41.154Z,6.07
2022-10-06T11:08:29.907Z,10.77
2022-10-06T11:11:02.883Z,9.90
2022-10-06T11:13:41.990Z,7.23
2022-10-06T11:16:30.797Z,9.07
2022-10-06T11:19:29.881Z,10.33
2022-10-06T11:22:28.309Z,4.63
2022-10-06T11:25:05.707Z,7.37
2022-10-06T11:27:45.003Z,7.90
2022-10-06T11:30:26.364Z,7.67
2022-10-06T11:33:11.203Z,8.80
2022-10-06T11:36:16.718Z,7.87
2022-10-06T11:38:50.725Z,7.70
2022-10-06T11:41:27.143Z,6.83
2022-10-06T11:44:04.440Z,9.60
2022-10-06T11:46:44.077Z,5.07
2022-10-06T11:49:47.685Z,3.67
2022-10-06T11:52:55.893Z,8.43
2022-10-06T11:55:26.597Z,3.20
2022-10-06T12:01:51.644Z,8.67
2022-10-06T12:04:24.672Z,6.80
2022-10-06T12:07:06.340Z,8.83
2022-10-06T12:09:45.546Z,7.00
2022-10-06T12:12:43.378Z,8.70
2022-10-06T12:18:30.946Z,7.17
2022-10-06T12:21:09.576Z,4.77
2022-10-06T12:23:47.722Z,6.93
2022-10-06T12:26:28.118Z,7.47
2022-10-06T12:29:21.731Z,5.00
2022-10-06T12:32:01.634Z,5.70
2022-10-06T12:34:42.909Z,7.70
2022-10-06T12:37:41.820Z,6.23
2022-10-06T12:40:46.516Z,10.20
2022-10-06T12:43:30.969Z,5.77
2022-10-06T12:46:30.233Z,6.80
2022-10-06T12:49:24.775Z,3.50
2022-10-06T12:51:57.895Z,6.63
2022-10-06T12:54:34.938Z,7.13
2022-10-06T12:57:16.277Z,5.77
2022-10-06T12:59:44.701Z,7.03
2022-10-06T13:02:29.396Z,9.33
2022-10-06T13:05:00.793Z,4.50
2022-10-06T13:07:33.061Z,4.70
2022-10-06T13:10:19.902Z,8.47
2022-10-06T13:12:50.481Z,8.50
2022-10-06T13:15:24.073Z,3.80
2022-10-06T13:17:55.508Z,5.67
2022-10-06T13:20:50.335Z,4.17
2022-10-06T13:23:28.654Z,5.27
2022-10-06T13:25:59.036Z,7.40
2022-10-06T13:28:30.565Z,6.03
2022-10-06T13:33:31.329Z,6.60
2022-10-06T13:36:00.135Z,5.17
2022-10-06T13:38:35.159Z,9.23
2022-10-06T13:41:05.466Z,5.03
2022-10-06T13:43:39.390Z,6.27
2022-10-06T13:46:10.770Z,7.30
2022-10-06T13:48:46.003Z,5.90
2022-10-06T13:51:39.282Z,6.10
2022-10-06T13:54:29.671Z,7.00
2022-10-06T13:56:58.696Z,6.93
2022-10-06T14:03:37.421Z,4.30
2022-10-06T14:06:16.627Z,6.67
2022-10-06T14:08:50.638Z,6.17
2022-10-06T14:11:25.331Z,9.03
2022-10-06T14:13:56.629Z,5.30
2022-10-06T14:16:40.211Z,7.87
2022-10-06T14:19:35.160Z,9.23
2022-10-06T14:22:12.570Z,5.07
2022-10-06T14:29:15.947Z,6.90
2022-10-06T14:31:45.198Z,3.37
2022-10-06T14:34:16.486Z,7.00
2022-10-06T14:36:46.847Z,5.70
2022-10-06T14:39:16.504Z,6.27
2022-10-06T14:41:45.552Z,6.90
2022-10-06T14:44:16.321Z,7.13
2022-10-06T14:46:48.528Z,6.60
2022-10-06T14:49:17.447Z,7.27
2022-10-06T14:51:46.129Z,6.80
2022-10-06T14:54:14.268Z,7.63
2022-10-06T14:56:42.981Z,5.00
2022-10-06T14:59:16.905Z,7.37
2022-10-06T15:01:47.762Z,8.57
2022-10-06T15:04:18.813Z,6.00
2022-10-06T15:07:04.864Z,8.97
2022-10-06T15:09:33.683Z,5.10
2022-10-06T15:12:02.002Z,5.83
2022-10-06T15:14:30.766Z,7.60
2022-10-06T15:17:00.583Z,7.33
2022-10-06T15:19:28.738Z,7.17
2022-10-06T15:21:56.882Z,5.10
2022-10-06T15:24:25.089Z,6.30
2022-10-06T15:27:21.170Z,6.23
2022-10-06T15:29:52.129Z,4.70
2022-10-06T15:32:22.537Z,3.57
2022-10-06T15:34:52.130Z,3.40
2022-10-06T15:37:29.314Z,5.67
2022-10-06T15:39:58.554Z,6.50
2022-10-06T15:42:26.712Z,3.40
2022-10-06T15:56:22.533Z,10.20
2022-10-06T15:58:50.673Z,7.63
2022-10-06T16:01:28.250Z,4.57
2022-10-06T16:03:59.307Z,5.00
2022-10-06T16:06:41.664Z,4.20
2022-10-06T16:10:00.526Z,3.03
2022-10-06T16:12:29.277Z,6.30
2022-10-06T16:15:00.543Z,5.37
2022-10-06T16:17:28.722Z,6.03
2022-10-06T16:20:00.594Z,7.67
2022-10-06T16:22:32.301Z,6.47
2022-10-06T16:25:00.335Z,5.00
2022-10-06T16:27:33.419Z,4.03
2022-10-06T16:30:01.776Z,6.33
2022-10-06T16:32:29.883Z,7.20
2022-10-06T16:34:59.404Z,4.10
2022-10-06T16:37:27.385Z,5.47
2022-10-06T16:39:55.526Z,5.30
2022-10-06T16:42:24.627Z,5.10
2022-10-06T16:44:52.868Z,8.23
2022-10-06T16:47:31.576Z,7.47
2022-10-06T16:50:01.217Z,4.77
2022-10-06T16:53:20.846Z,6.13
2022-10-06T16:58:56.511Z,5.77
2022-10-06T17:01:50.923Z,6.80
2022-10-06T17:04:21.119Z,4.10
2022-10-06T17:06:51.961Z,6.93
2022-10-06T17:09:27.762Z,6.53
2022-10-06T17:11:58.484Z,7.10
2022-10-06T17:14:27.671Z,6.43
2022-10-06T17:16:57.099Z,4.80
2022-10-06T17:19:27.291Z,9.40
2022-10-06T17:22:00.288Z,5.87
2022-10-06T17:24:31.337Z,6.20
2022-10-06T17:26:59.520Z,6.33
2022-10-06T17:29:28.139Z,6.07
2022-10-06T17:31:59.065Z,6.83
2022-10-06T17:34:33.545Z,6.57
2022-10-06T17:37:30.057Z,11.97
2022-10-06T17:39:58.220Z,5.80
2022-10-06T17:42:26.522Z,9.57
2022-10-06T17:44:54.767Z,7.43
2022-10-06T17:47:22.937Z,5.37
2022-10-06T17:49:51.010Z,8.90
2022-10-06T17:52:23.910Z,7.27
2022-10-06T17:54:54.612Z,6.60
2022-10-06T17:57:22.916Z,7.13
2022-10-06T18:03:30.255Z,10.70
2022-10-06T18:06:00.552Z,5.37
2022-10-06T18:08:31.037Z,6.10
2022-10-06T18:11:19.441Z,3.97
2022-10-06T18:13:49.711Z,4.63
2022-10-06T18:16:22.551Z,3.27
2022-10-06T18:18:53.116Z,5.27
2022-10-06T18:21:23.178Z,5.23
2022-10-06T18:24:37.716Z,6.40
2022-10-06T18:27:19.400Z,4.90
2022-10-06T18:29:50.362Z,4.50
2022-10-06T18:38:26.336Z,7.60
2022-10-06T18:40:57.398Z,5.10
2022-10-06T18:43:27.184Z,5.83
2022-10-06T18:46:13.370Z,5.67
2022-10-06T18:48:58.803Z,4.30
2022-10-06T18:51:38.493Z,6.23
2022-10-06T18:54:09.467Z,6.93
2022-10-06T18:56:39.387Z,4.83
2022-10-06T18:59:13.981Z,8.47
2022-10-06T19:01:45.032Z,5.87
2022-10-06T19:04:15.321Z,7.03
2022-10-06T19:06:48.214Z,6.57
2022-10-06T19:09:20.464Z,5.17
2022-10-06T19:11:50.499Z,4.93
2022-10-06T19:14:22.416Z,4.00
2022-10-06T19:16:54.094Z,5.60
2022-10-06T19:19:22.168Z,7.90
2022-10-06T19:26:19.051Z,8.43
2022-10-06T19:33:41.081Z,6.47
2022-10-06T19:36:10.101Z,7.97
2022-10-06T19:38:40.322Z,6.77
2022-10-06T19:41:25.581Z,7.67
2022-10-06T19:43:53.616Z,12.00
2022-10-06T19:46:21.641Z,13.23
2022-10-06T19:48:56.625Z,15.10
2022-10-06T19:51:25.501Z,9.73
2022-10-06T19:53:53.567Z,9.63
2022-10-06T19:56:25.205Z,9.40
2022-10-06T19:58:53.703Z,18.80
2022-10-06T20:01:24.989Z,7.27
2022-10-06T20:03:55.370Z,6.60
2022-10-06T20:06:24.270Z,5.47
2022-10-06T20:08:54.300Z,6.70
2022-10-06T20:11:24.698Z,6.27
2022-10-06T20:13:52.984Z,9.27
2022-10-06T20:16:21.750Z,7.83
2022-10-06T20:18:50.739Z,4.60
2022-10-06T20:21:22.065Z,4.43
2022-10-06T20:24:05.520Z,6.67
2022-10-06T20:26:36.068Z,6.53
2022-10-06T20:29:06.611Z,7.73
2022-10-06T20:31:40.104Z,4.37
2022-10-06T20:34:10.899Z,10.60
2022-10-06T20:36:40.692Z,10.20
2022-10-06T20:39:40.554Z,6.67
2022-10-06T20:42:13.852Z,7.10
2022-10-06T20:44:43.578Z,4.10
2022-10-06T20:47:12.521Z,7.23
2022-10-06T20:49:42.692Z,4.93
2022-10-06T20:52:14.728Z,7.57
2022-10-06T20:54:44.154Z,9.73
2022-10-06T20:57:13.095Z,7.70
2022-10-06T20:59:41.699Z,8.33
2022-10-06T21:02:12.025Z,8.53
2022-10-06T21:04:43.686Z,9.90
2022-10-06T21:07:13.546Z,12.67
2022-10-06T21:09:41.812Z,14.83
2022-10-06T21:12:10.116Z,9.53
2022-10-06T21:14:42.208Z,9.97
2022-10-06T21:17:10.443Z,7.13
2022-10-06T21:19:38.643Z,5.63
2022-10-06T21:22:07.099Z,6.43
2022-10-06T21:24:36.686Z,7.43
2022-10-06T21:27:05.105Z,10.27
2022-10-06T21:29:33.280Z,6.70
2022-10-06T21:32:01.378Z,8.77
2022-10-06T21:34:29.453Z,8.23
2022-10-06T21:36:58.185Z,4.97
2022-10-06T21:39:26.328Z,6.50
2022-10-06T21:41:55.894Z,4.80
2022-10-06T21:44:24.011Z,7.97
2022-10-06T21:46:53.695Z,6.23
2022-10-06T21:49:23.630Z,5.80
2022-10-06T21:51:53.858Z,7.50
2022-10-06T21:54:23.107Z,10.97
2022-10-06T21:56:51.828Z,6.20
2022-10-06T21:59:21.317Z,6.60
